createdAt,value
2022-11-21T00:04:33.867Z,-1.78
2022-11-21T00:09:41.510Z,-1.75
2022-11-21T00:14:49.578Z,-1.72
2022-11-21T00:19:56.981Z,-1.79
2022-11-21T00:25:04.191Z,-1.89
2022-11-21T00:30:11.949Z,-1.92
2022-11-21T00:35:17.764Z,-1.88
2022-11-21T00:40:26.499Z,-1.87
2022-11-21T00:45:33.707Z,-1.92
2022-11-21T00:50:39.477Z,-1.92
2022-11-21T00:55:46.581Z,-1.91
2022-11-21T01:00:54.129Z,-1.90
2022-11-21T01:06:07.113Z,-1.96
2022-11-21T01:11:16.873Z,-2.05
2022-11-21T01:16:26.952Z,-2.04
2022-11-21T01:21:35.219Z,-2.02
2022-11-21T01:26:49.684Z,-1.97
2022-11-21T01:32:03.181Z,-1.94
2022-11-21T01:37:10.533Z,-2.01
2022-11-21T01:42:18.250Z,-2.09
2022-11-21T01:47:25.506Z,-2.15
2022-11-21T01:52:32.400Z,-2.22
2022-11-21T01:57:42.888Z,-2.27
2022-11-21T02:02:55.405Z,-2.25
2022-11-21T02:08:07.301Z,-2.21
2022-11-21T02:13:14.694Z,-2.15
2022-11-21T02:18:22.436Z,-2.08
2022-11-21T02:23:38.832Z,-1.99
2022-11-21T02:28:46.573Z,-1.92
2022-11-21T02:34:08.283Z,-1.88
2022-11-21T02:39:21.327Z,-1.91
2022-11-21T02:44:36.708Z,-1.88
2022-11-21T02:49:51.634Z,-1.82
2022-11-21T03:00:30.778Z,-1.80
2022-11-21T03:05:40.017Z,-2.08
2022-11-21T03:10:47.103Z,-2.27
2022-11-21T03:15:55.754Z,-2.35
2022-11-21T03:21:03.161Z,-2.37
2022-11-21T03:26:10.275Z,-2.53
2022-11-21T03:31:15.906Z,-2.71
2022-11-21T03:36:23.455Z,-2.73
2022-11-21T03:41:30.647Z,-2.74
2022-11-21T03:46:39.643Z,-2.75
2022-11-21T03:51:47.571Z,-2.81
2022-11-21T03:57:20.880Z,-2.82
2022-11-21T04:02:28.245Z,-2.90
2022-11-21T04:07:35.626Z,-2.93
2022-11-21T04:12:43.105Z,-3.03
2022-11-21T04:17:51.112Z,-3.19
2022-11-21T04:22:58.564Z,-3.26
2022-11-21T04:28:07.266Z,-3.30
2022-11-21T04:33:15.172Z,-3.35
2022-11-21T04:38:22.287Z,-3.40
2022-11-21T04:43:27.795Z,-3.41
2022-11-21T04:48:39.325Z,-3.43
2022-11-21T04:53:47.346Z,-3.43
2022-11-21T04:58:57.232Z,-3.37
2022-11-21T05:04:04.341Z,-3.36
2022-11-21T05:09:10.121Z,-3.34
2022-11-21T05:14:17.776Z,-3.34
2022-11-21T05:19:25.914Z,-3.30
2022-11-21T05:24:33.116Z,-3.32
2022-11-21T05:29:40.551Z,-3.35
2022-11-21T05:34:48.242Z,-3.37
2022-11-21T05:39:55.568Z,-3.41
2022-11-21T05:45:03.969Z,-3.49
2022-11-21T05:50:12.252Z,-3.62
2022-11-21T05:55:19.804Z,-3.75
2022-11-21T06:00:27.315Z,-3.89
2022-11-21T06:05:34.807Z,-4.05
2022-11-21T06:10:42.109Z,-4.08
2022-11-21T06:15:49.777Z,-4.04
2022-11-21T06:21:01.535Z,-4.05
2022-11-21T06:26:12.769Z,-4.16
2022-11-21T06:31:22.250Z,-4.19
2022-11-21T06:36:29.276Z,-4.28
2022-11-21T06:41:36.378Z,-4.35
2022-11-21T06:46:48.238Z,-4.25
2022-11-21T06:51:57.929Z,-4.14
2022-11-21T07:00:48.899Z,-4.00
2022-11-21T07:05:59.888Z,-4.03
2022-11-21T07:11:25.578Z,-3.98
2022-11-21T07:16:35.180Z,-3.99
2022-11-21T07:21:43.272Z,-3.97
2022-11-21T07:26:51.386Z,-3.92
2022-11-21T07:31:58.806Z,-3.84
2022-11-21T07:37:05.429Z,-3.79
2022-11-21T07:42:13.115Z,-3.66
2022-11-21T07:47:20.758Z,-3.53
2022-11-21T07:52:30.391Z,-3.32
2022-11-21T07:57:37.846Z,-3.08
2022-11-21T08:02:45.887Z,-2.80
2022-11-21T08:07:52.888Z,-2.51
2022-11-21T08:12:59.801Z,-2.21
2022-11-21T08:18:12.719Z,-1.94
2022-11-21T08:23:19.802Z,-1.68
2022-11-21T08:28:27.007Z,-1.43
2022-11-21T08:33:32.576Z,-1.23
2022-11-21T08:38:39.585Z,-1.01
2022-11-21T08:43:46.914Z,-0.80
2022-11-21T08:48:53.926Z,-0.65
2022-11-21T08:54:03.002Z,-0.52
2022-11-21T08:59:10.766Z,-0.43
2022-11-21T09:04:18.171Z,-0.34
2022-11-21T09:09:25.939Z,-0.23
2022-11-21T09:14:52.275Z,-0.10
2022-11-21T09:19:59.809Z,0.07
2022-11-21T09:28:12.734Z,0.32
2022-11-21T09:33:19.737Z,0.48
2022-11-21T09:38:27.257Z,0.64
2022-11-21T09:43:55.549Z,0.79
2022-11-21T09:49:06.638Z,0.92
2022-11-21T09:54:21.913Z,1.03
2022-11-21T09:59:36.374Z,1.10
2022-11-21T10:04:43.956Z,1.15
2022-11-21T10:10:05.427Z,1.17
2022-11-21T10:15:25.363Z,1.21
2022-11-21T10:20:47.692Z,1.29
2022-11-21T10:25:59.390Z,1.39
2022-11-21T10:31:10.423Z,1.46
2022-11-21T10:36:27.064Z,1.52
2022-11-21T10:41:47.914Z,1.54
2022-11-21T10:47:00.332Z,1.58
2022-11-21T10:52:13.152Z,1.65
2022-11-21T10:57:21.914Z,1.73
2022-11-21T11:02:29.434Z,1.84
2022-11-21T11:07:36.545Z,1.95
2022-11-21T11:13:08.744Z,1.99
2022-11-21T11:18:26.909Z,1.96
2022-11-21T11:23:34.052Z,1.94
2022-11-21T11:28:41.662Z,1.96
2022-11-21T11:33:58.585Z,2.01
2022-11-21T11:39:18.673Z,2.08
2022-11-21T11:44:51.390Z,2.11
2022-11-21T11:50:13.588Z,2.11
2022-11-21T11:55:27.712Z,2.09
2022-11-21T12:00:41.881Z,2.11
2022-11-21T12:06:02.449Z,2.15
2022-11-21T12:11:38.764Z,2.21
2022-11-21T12:16:47.193Z,2.28
2022-11-21T12:21:54.740Z,2.33
2022-11-21T12:27:15.439Z,2.36
2022-11-21T12:32:36.461Z,2.38
2022-11-21T12:37:56.047Z,2.39
2022-11-21T12:43:18.088Z,2.41
2022-11-21T12:49:04.824Z,2.46
2022-11-21T12:54:31.895Z,2.51
2022-11-21T12:59:49.590Z,2.53
2022-11-21T13:04:59.041Z,2.56
2022-11-21T13:10:14.280Z,2.56
2022-11-21T13:15:31.758Z,2.56
2022-11-21T13:20:52.257Z,2.55
2022-11-21T13:26:02.071Z,2.55
2022-11-21T13:31:31.234Z,2.55
2022-11-21T13:36:40.451Z,2.56
2022-11-21T13:42:22.143Z,2.56
2022-11-21T13:48:11.251Z,2.56
2022-11-21T13:53:42.253Z,2.53
2022-11-21T13:59:03.969Z,2.52
2022-11-21T14:04:43.989Z,2.55
2022-11-21T14:09:53.163Z,2.58
2022-11-21T14:15:21.958Z,2.61
2022-11-21T14:20:32.665Z,2.60
2022-11-21T14:25:47.565Z,2.56
2022-11-21T14:31:00.995Z,2.51
2022-11-21T14:36:11.029Z,2.45
2022-11-21T14:41:32.062Z,2.39
2022-11-21T14:46:41.302Z,2.31
2022-11-21T14:51:52.391Z,2.15
2022-11-21T14:57:01.591Z,1.99
2022-11-21T15:02:15.894Z,1.92
2022-11-21T15:07:31.843Z,1.85
2022-11-21T15:12:47.900Z,1.73
2022-11-21T15:23:35.649Z,1.46
2022-11-21T15:28:58.742Z,1.41
2022-11-21T15:39:38.003Z,1.22
2022-11-21T15:45:00.926Z,1.18
2022-11-21T15:50:09.755Z,1.08
2022-11-21T15:55:22.216Z,1.06
2022-11-21T16:00:29.361Z,1.10
2022-11-21T16:05:36.772Z,1.09
2022-11-21T16:10:44.687Z,1.08
2022-11-21T16:15:52.100Z,1.10
2022-11-21T16:21:11.736Z,1.12
2022-11-21T16:26:19.518Z,1.17
2022-11-21T16:31:28.655Z,1.21
2022-11-21T16:36:35.840Z,1.17
2022-11-21T16:41:46.031Z,1.18
2022-11-21T16:46:55.571Z,1.22
2022-11-21T16:52:03.198Z,1.28
2022-11-21T16:57:10.687Z,1.30
2022-11-21T17:02:17.680Z,1.31
2022-11-21T17:07:25.449Z,1.32
2022-11-21T17:12:36.250Z,1.31
2022-11-21T17:17:43.539Z,1.36
2022-11-21T17:22:50.617Z,1.39
2022-11-21T17:27:58.219Z,1.48
2022-11-21T17:33:05.280Z,1.58
2022-11-21T17:38:12.412Z,1.69
2022-11-21T17:43:18.107Z,1.78
2022-11-21T17:48:25.496Z,1.80
2022-11-21T17:59:03.489Z,1.77
2022-11-21T18:04:15.039Z,1.79
2022-11-21T18:09:22.813Z,1.83
2022-11-21T18:14:28.874Z,1.92
2022-11-21T18:19:36.224Z,1.97
2022-11-21T18:24:43.043Z,2.01
2022-11-21T18:29:48.735Z,2.01
2022-11-21T18:34:56.253Z,1.97
2022-11-21T18:40:03.769Z,1.93
2022-11-21T18:45:12.369Z,1.94
2022-11-21T18:50:19.901Z,1.98
2022-11-21T18:55:28.220Z,2.02
2022-11-21T19:00:35.222Z,2.05
2022-11-21T19:05:44.255Z,2.06
2022-11-21T19:10:51.962Z,2.10
2022-11-21T19:16:01.789Z,2.14
2022-11-21T19:21:11.094Z,2.18
2022-11-21T19:26:21.775Z,2.20
2022-11-21T19:31:28.923Z,2.18
2022-11-21T19:43:12.004Z,1.98
2022-11-21T19:48:19.729Z,2.02
2022-11-21T19:53:28.255Z,2.09
2022-11-21T19:58:35.312Z,2.14
2022-11-21T20:03:44.537Z,2.12
2022-11-21T20:08:55.469Z,2.14
2022-11-21T20:14:02.926Z,2.19
2022-11-21T20:19:13.632Z,2.20
2022-11-21T20:24:21.255Z,2.19
2022-11-21T20:29:28.766Z,2.18
2022-11-21T20:34:36.449Z,2.18
2022-11-21T20:39:43.531Z,2.20
2022-11-21T20:45:54.489Z,2.20
2022-11-21T20:50:48.837Z,2.17
2022-11-21T20:55:46.459Z,2.14
2022-11-21T21:00:53.773Z,2.12
2022-11-21T21:06:05.592Z,2.10
2022-11-21T21:11:36.927Z,2.09
2022-11-21T21:16:44.785Z,2.08
2022-11-21T21:21:52.127Z,2.10
2022-11-21T21:26:57.662Z,2.15
2022-11-21T21:32:04.952Z,2.17
2022-11-21T21:37:12.363Z,2.10
2022-11-21T21:42:19.877Z,2.02
2022-11-21T21:47:27.179Z,1.96
2022-11-21T21:52:35.693Z,1.98
2022-11-21T21:57:47.179Z,2.03
2022-11-21T22:03:01.282Z,2.09
2022-11-21T22:08:08.762Z,2.15
2022-11-21T22:13:16.073Z,2.18
2022-11-21T22:18:22.277Z,2.23
2022-11-21T22:23:30.830Z,2.29
2022-11-21T22:28:38.077Z,2.33
2022-11-21T22:33:44.663Z,2.33
2022-11-21T22:38:55.186Z,2.23
2022-11-21T22:44:02.658Z,2.08
2022-11-21T22:49:11.329Z,1.95
2022-11-21T22:54:20.956Z,1.89
2022-11-21T22:59:29.873Z,1.87
2022-11-21T23:04:37.200Z,1.79
2022-11-21T23:09:44.709Z,1.64
2022-11-21T23:14:53.041Z,1.46
2022-11-21T23:20:00.644Z,1.30
2022-11-21T23:25:08.988Z,1.16
2022-11-21T23:30:18.412Z,1.08
2022-11-21T23:35:25.414Z,0.97
2022-11-21T23:40:32.718Z,0.90
2022-11-21T23:45:40.025Z,0.83
2022-11-21T23:50:45.763Z,0.68
2022-11-21T23:55:53.910Z,0.40
